21°C Temp
19°C Dewpoint
88% Humidity
Temperature
5 KM/H
3 MPH
3 KTS
70°
East North
East

Wind Speed
Partly Cloudy
Conditions
Pressure 1016.92 (hPa) - 30.03 (in)
Visibility 6.2 (mi) - 10.0 (km)

Current Conditions
LIMP
Location 40(km)
Metar :LIMP 201550Z 07003KT 040V100 9999 FEW050 21/19 Q1017
Sun 20th October 16:50 pm

Airport
  Metar Aviation API Data Provided by https://www.checkwx.com/ PHP scripts by weather34.com ©2019